Wilmot, WI

11:17 AM CDT on April 19, 2015 (GMT -0500)
KWITWINL3 | | Change Station
CLOSE
Current Station
Personal Weather Station
Location: Twin Lakes, WI
Elevation: 863 ft
Nearby Weather Stations

Elev 863 ft 42.51 °N, 88.23 °W | Updated 1 second ago

Clear
Clear
65.2 °F
Feels Like 65.2 °F
N
2.2
Wind Variable Wind from NNE
Gusts 6.3 mph

Today
High -- | Low -- °F
--% Chance of Precip.
Yesterday
High -- | Low -- °F
Precip. -- in
6:05 AM 7:38 PM
New Moon, 1% visible
Pressure 29.78 in
Visibility 10.0 miles
Clouds Clear
Dew Point 38 °F
Humidity 37%
Rainfall 0.00 in
Snow Depth Not available.
UV 7 out of 12
Pollen 4.30 out of 12
Air Quality Not available.
Flu Activity Local Activity
METAR KBUU 191555Z AUTO 10009KT 10SM CLR 15/01 A2978 RMK AO2 T01500007

More Conditions Fewer Conditions

Pressure 29.78 in
Visibility 10.0 miles
Clouds Clear
Dew Point 38 °F
Humidity 37%
Rainfall 0.00 in
Snow Depth Not available.
UV 7 out of 12
Pollen 4.30 out of 12
Air Quality Not available.
Flu Activity Local Activity
METAR KBUU 191555Z AUTO 10009KT 10SM CLR 15/01 A2978 RMK AO2 T01500007

More Conditions Fewer Conditions

10-Day Weather Forecast

Almanac

Astronomy

Apr. 19, 2015 Rise Set
Actual Time
Civil Twilight
Nautical Twilight
Astronomical Twilight
Moon
Length of Visible Light
Length of Day
Tomorrow will be .
, % of the Moon is Illuminated

Today's Extremes

State Highs State Lows

Community

WunderPhotos

Upload Photos

1,814,842 photos uploaded!

WunderBlogs® & News

Nearby

Air Quality

  Air Quality AQ Index Pollutant
Not available.

Snow Depth

Station Depth Elevation

Earthquake Activity

City Distance Mag. Time & Date
Minimum magnitude displayed is 2.5.

Coastal Water Temperatures

Place Temperature

Stations

Nearby Weather Stations

Station Location Temp. Windchill Dew Point Humidity Wind Precip. Elev Updated Type